sensor_id;sensor_type;location;lat;lon;timestamp;pressure;altitude;pressure_sealevel;temperature;humidity
4617;BME280;2321;42.704;23.384;2022-08-21T00:00:59;94892.50;;;19.91;nan
4617;BME280;2321;42.704;23.384;2022-08-21T00:03:26;94895.75;;;19.93;nan
4617;BME280;2321;42.704;23.384;2022-08-21T00:05:54;94886.03;;;19.92;nan
4617;BME280;2321;42.704;23.384;2022-08-21T00:08:21;94889.06;;;20.11;nan
4617;BME280;2321;42.704;23.384;2022-08-21T00:10:48;94879.94;;;20.18;nan
4617;BME280;2321;42.704;23.384;2022-08-21T00:13:17;94879.31;;;20.10;nan
4617;BME280;2321;42.704;23.384;2022-08-21T00:15:45;94864.19;;;20.09;nan
4617;BME280;2321;42.704;23.384;2022-08-21T00:18:13;94878.50;;;20.10;nan
4617;BME280;2321;42.704;23.384;2022-08-21T00:20:41;94884.16;;;19.98;nan
4617;BME280;2321;42.704;23.384;2022-08-21T00:23:09;94873.97;;;20.16;nan
4617;BME280;2321;42.704;23.384;2022-08-21T00:25:37;94876.94;;;20.19;nan
4617;BME280;2321;42.704;23.384;2022-08-21T00:28:05;94871.53;;;20.14;nan
4617;BME280;2321;42.704;23.384;2022-08-21T00:30:34;94864.47;;;20.13;nan
4617;BME280;2321;42.704;23.384;2022-08-21T00:33:02;94867.41;;;20.06;nan
4617;BME280;2321;42.704;23.384;2022-08-21T00:35:31;94859.31;;;20.01;nan
4617;BME280;2321;42.704;23.384;2022-08-21T00:37:58;94853.91;;;20.01;nan
4617;BME280;2321;42.704;23.384;2022-08-21T00:40:28;94863.13;;;20.05;nan
4617;BME280;2321;42.704;23.384;2022-08-21T00:42:56;94871.22;;;20.05;nan
4617;BME280;2321;42.704;23.384;2022-08-21T00:45:24;94872.00;;;20.00;nan
4617;BME280;2321;42.704;23.384;2022-08-21T00:47:54;94868.75;;;20.03;nan
4617;BME280;2321;42.704;23.384;2022-08-21T00:50:22;94875.84;;;20.15;nan
4617;BME280;2321;42.704;23.384;2022-08-21T00:52:51;94870.44;;;20.15;nan
4617;BME280;2321;42.704;23.384;2022-08-21T00:55:20;94881.22;;;20.05;nan
4617;BME280;2321;42.704;23.384;2022-08-21T00:57:51;94887.38;;;20.00;nan
4617;BME280;2321;42.704;23.384;2022-08-21T01:00:22;94872.00;;;19.95;nan
4617;BME280;2321;42.704;23.384;2022-08-21T01:02:49;94860.38;;;19.95;nan
4617;BME280;2321;42.704;23.384;2022-08-21T01:05:18;94855.75;;;19.85;nan
4617;BME280;2321;42.704;23.384;2022-08-21T01:07:45;94851.97;;;19.86;nan
4617;BME280;2321;42.704;23.384;2022-08-21T01:10:13;94852.25;;;19.89;nan
4617;BME280;2321;42.704;23.384;2022-08-21T01:12:41;94845.25;;;19.99;nan
4617;BME280;2321;42.704;23.384;2022-08-21T01:15:09;94850.94;;;20.08;nan
4617;BME280;2321;42.704;23.384;2022-08-21T01:17:37;94844.97;;;20.06;nan
4617;BME280;2321;42.704;23.384;2022-08-21T01:20:06;94841.22;;;20.07;nan
4617;BME280;2321;42.704;23.384;2022-08-21T01:22:35;94842.03;;;20.12;nan
4617;BME280;2321;42.704;23.384;2022-08-21T01:25:08;94843.41;;;20.15;nan
4617;BME280;2321;42.704;23.384;2022-08-21T01:27:36;94842.84;;;20.13;nan
4617;BME280;2321;42.704;23.384;2022-08-21T01:30:11;94839.84;;;20.04;nan
4617;BME280;2321;42.704;23.384;2022-08-21T01:32:39;94834.44;;;19.99;nan
4617;BME280;2321;42.704;23.384;2022-08-21T01:35:06;94833.88;;;19.97;nan
4617;BME280;2321;42.704;23.384;2022-08-21T01:37:36;94836.88;;;19.95;nan
4617;BME280;2321;42.704;23.384;2022-08-21T01:40:04;94837.13;;;19.88;nan
4617;BME280;2321;42.704;23.384;2022-08-21T01:42:31;94848.44;;;19.85;nan
4617;BME280;2321;42.704;23.384;2022-08-21T01:44:58;94848.19;;;19.87;nan
4617;BME280;2321;42.704;23.384;2022-08-21T01:47:25;94860.66;;;19.93;nan
4617;BME280;2321;42.704;23.384;2022-08-21T01:49:52;94858.97;;;19.81;nan
4617;BME280;2321;42.704;23.384;2022-08-21T01:52:19;94862.47;;;19.77;nan
4617;BME280;2321;42.704;23.384;2022-08-21T01:54:48;94857.63;;;19.84;nan
4617;BME280;2321;42.704;23.384;2022-08-21T01:57:15;94847.69;;;19.95;nan
4617;BME280;2321;42.704;23.384;2022-08-21T01:59:42;94852.00;;;19.96;nan
4617;BME280;2321;42.704;23.384;2022-08-21T02:02:09;94856.31;;;19.92;nan
4617;BME280;2321;42.704;23.384;2022-08-21T02:04:36;94859.03;;;19.97;nan
4617;BME280;2321;42.704;23.384;2022-08-21T02:07:04;94858.19;;;19.97;nan
4617;BME280;2321;42.704;23.384;2022-08-21T02:09:30;94859.03;;;19.97;nan
4617;BME280;2321;42.704;23.384;2022-08-21T02:11:59;94872.22;;;19.88;nan
4617;BME280;2321;42.704;23.384;2022-08-21T02:14:26;94867.66;;;19.89;nan
4617;BME280;2321;42.704;23.384;2022-08-21T02:16:53;94875.47;;;19.85;nan
4617;BME280;2321;42.704;23.384;2022-08-21T02:19:20;94880.88;;;19.90;nan
4617;BME280;2321;42.704;23.384;2022-08-21T02:21:47;94872.75;;;19.85;nan
4617;BME280;2321;42.704;23.384;2022-08-21T02:24:14;94869.25;;;19.85;nan
4617;BME280;2321;42.704;23.384;2022-08-21T02:26:41;94867.13;;;19.97;nan
4617;BME280;2321;42.704;23.384;2022-08-21T02:29:10;94867.66;;;19.94;nan
4617;BME280;2321;42.704;23.384;2022-08-21T02:31:37;94869.78;;;19.81;nan
4617;BME280;2321;42.704;23.384;2022-08-21T02:34:04;94881.97;;;19.89;nan
4617;BME280;2321;42.704;23.384;2022-08-21T02:36:31;94875.22;;;20.02;nan
4617;BME280;2321;42.704;23.384;2022-08-21T02:38:58;94877.16;;;20.02;nan
4617;BME280;2321;42.704;23.384;2022-08-21T02:41:26;94877.94;;;19.92;nan
4617;BME280;2321;42.704;23.384;2022-08-21T02:43:53;94871.91;;;19.74;nan
4617;BME280;2321;42.704;23.384;2022-08-21T02:46:21;94870.00;;;19.69;nan
4617;BME280;2321;42.704;23.384;2022-08-21T02:48:49;94867.59;;;19.78;nan
4617;BME280;2321;42.704;23.384;2022-08-21T02:51:18;94873.53;;;19.75;nan
4617;BME280;2321;42.704;23.384;2022-08-21T02:53:46;94868.19;;;19.86;nan
4617;BME280;2321;42.704;23.384;2022-08-21T02:56:16;94868.19;;;19.91;nan
4617;BME280;2321;42.704;23.384;2022-08-21T02:58:46;94878.69;;;19.82;nan
4617;BME280;2321;42.704;23.384;2022-08-21T03:01:13;94879.50;;;19.83;nan
4617;BME280;2321;42.704;23.384;2022-08-21T03:03:44;94871.97;;;19.90;nan
4617;BME280;2321;42.704;23.384;2022-08-21T03:06:13;94883.31;;;19.87;nan
4617;BME280;2321;42.704;23.384;2022-08-21T03:08:40;94881.41;;;19.87;nan
4617;BME280;2321;42.704;23.384;2022-08-21T03:11:10;94886.00;;;19.87;nan
4617;BME280;2321;42.704;23.384;2022-08-21T03:13:37;94893.81;;;19.83;nan
4617;BME280;2321;42.704;23.384;2022-08-21T03:16:05;94883.84;;;19.84;nan
4617;BME280;2321;42.704;23.384;2022-08-21T03:18:33;94885.19;;;19.81;nan
4617;BME280;2321;42.704;23.384;2022-08-21T03:21:02;94887.34;;;19.84;nan
4617;BME280;2321;42.704;23.384;2022-08-21T03:23:30;94888.13;;;19.79;nan
4617;BME280;2321;42.704;23.384;2022-08-21T03:25:58;94876.50;;;19.79;nan
4617;BME280;2321;42.704;23.384;2022-08-21T03:28:25;94872.75;;;19.75;nan
4617;BME280;2321;42.704;23.384;2022-08-21T03:30:53;94881.38;;;19.77;nan
4617;BME280;2321;42.704;23.384;2022-08-21T03:33:21;94888.94;;;19.75;nan
4617;BME280;2321;42.704;23.384;2022-08-21T03:35:55;94874.84;;;19.67;nan
4617;BME280;2321;42.704;23.384;2022-08-21T03:38:26;94877.28;;;19.69;nan
4617;BME280;2321;42.704;23.384;2022-08-21T03:40:54;94877.25;;;19.64;nan
4617;BME280;2321;42.704;23.384;2022-08-21T03:43:21;94882.41;;;19.65;nan
4617;BME280;2321;42.704;23.384;2022-08-21T03:45:48;94878.38;;;19.68;nan
4617;BME280;2321;42.704;23.384;2022-08-21T03:48:15;94878.91;;;19.65;nan
4617;BME280;2321;42.704;23.384;2022-08-21T03:50:43;94875.91;;;19.66;nan
4617;BME280;2321;42.704;23.384;2022-08-21T03:53:13;94879.19;;;19.68;nan
4617;BME280;2321;42.704;23.384;2022-08-21T03:55:42;94871.41;;;19.77;nan
4617;BME280;2321;42.704;23.384;2022-08-21T03:58:10;94878.94;;;19.75;nan
4617;BME280;2321;42.704;23.384;2022-08-21T04:00:37;94884.91;;;19.77;nan
4617;BME280;2321;42.704;23.384;2022-08-21T04:03:04;94887.31;;;19.79;nan
4617;BME280;2321;42.704;23.384;2022-08-21T04:05:32;94883.28;;;19.81;nan
4617;BME280;2321;42.704;23.384;2022-08-21T04:08:02;94885.41;;;19.74;nan
4617;BME280;2321;42.704;23.384;2022-08-21T04:10:31;94887.06;;;19.80;nan
4617;BME280;2321;42.704;23.384;2022-08-21T04:13:00;94887.91;;;19.86;nan
4617;BME280;2321;42.704;23.384;2022-08-21T04:15:27;94893.00;;;19.77;nan
4617;BME280;2321;42.704;23.384;2022-08-21T04:17:55;94883.78;;;19.68;nan
4617;BME280;2321;42.704;23.384;2022-08-21T04:20:22;94887.06;;;19.80;nan
4617;BME280;2321;42.704;23.384;2022-08-21T04:22:50;94892.47;;;19.80;nan
4617;BME280;2321;42.704;23.384;2022-08-21T04:25:19;94879.75;;;19.76;nan
4617;BME280;2321;42.704;23.384;2022-08-21T04:27:47;94867.28;;;19.69;nan
4617;BME280;2321;42.704;23.384;2022-08-21T04:30:16;94883.25;;;19.71;nan
4617;BME280;2321;42.704;23.384;2022-08-21T04:32:44;94880.56;;;19.71;nan
4617;BME280;2321;42.704;23.384;2022-08-21T04:35:12;94881.38;;;19.72;nan
4617;BME280;2321;42.704;23.384;2022-08-21T04:37:40;94879.75;;;19.76;nan
4617;BME280;2321;42.704;23.384;2022-08-21T04:40:09;94877.88;;;19.81;nan
4617;BME280;2321;42.704;23.384;2022-08-21T04:42:42;94881.16;;;19.89;nan
4617;BME280;2321;42.704;23.384;2022-08-21T04:45:18;94877.91;;;19.87;nan
4617;BME280;2321;42.704;23.384;2022-08-21T04:47:48;94886.25;;;19.85;nan
4617;BME280;2321;42.704;23.384;2022-08-21T04:50:15;94889.25;;;19.89;nan
4617;BME280;2321;42.704;23.384;2022-08-21T04:52:43;94886.56;;;19.94;nan
4617;BME280;2321;42.704;23.384;2022-08-21T04:55:10;94892.78;;;19.89;nan
4617;BME280;2321;42.704;23.384;2022-08-21T04:57:38;94878.44;;;19.89;nan
4617;BME280;2321;42.704;23.384;2022-08-21T05:00:07;94886.81;;;19.87;nan
4617;BME280;2321;42.704;23.384;2022-08-21T05:02:38;94882.78;;;19.90;nan
4617;BME280;2321;42.704;23.384;2022-08-21T05:05:06;94876.59;;;20.00;nan
4617;BME280;2321;42.704;23.384;2022-08-21T05:07:34;94867.69;;;20.10;nan
4617;BME280;2321;42.704;23.384;2022-08-21T05:10:01;94866.06;;;20.09;nan
4617;BME280;2321;42.704;23.384;2022-08-21T05:12:31;94873.19;;;20.20;nan
4617;BME280;2321;42.704;23.384;2022-08-21T05:14:58;94873.19;;;20.25;nan
4617;BME280;2321;42.704;23.384;2022-08-21T05:17:26;94878.84;;;20.19;nan
4617;BME280;2321;42.704;23.384;2022-08-21T05:19:54;94887.22;;;20.22;nan
4617;BME280;2321;42.704;23.384;2022-08-21T05:22:22;94884.28;;;20.29;nan
4617;BME280;2321;42.704;23.384;2022-08-21T05:24:50;94882.09;;;20.31;nan
4617;BME280;2321;42.704;23.384;2022-08-21T05:27:17;94881.28;;;20.31;nan
4617;BME280;2321;42.704;23.384;2022-08-21T05:29:44;94874.84;;;20.42;nan
4617;BME280;2321;42.704;23.384;2022-08-21T05:32:13;94872.38;;;20.41;nan
4617;BME280;2321;42.704;23.384;2022-08-21T05:34:40;94873.19;;;20.52;nan
4617;BME280;2321;42.704;23.384;2022-08-21T05:37:11;94886.50;;;20.64;nan
4617;BME280;2321;42.704;23.384;2022-08-21T05:39:39;94881.84;;;20.49;nan
4617;BME280;2321;42.704;23.384;2022-08-21T05:42:06;94886.19;;;20.44;nan
4617;BME280;2321;42.704;23.384;2022-08-21T05:44:33;94878.63;;;20.57;nan
4617;BME280;2321;42.704;23.384;2022-08-21T05:47:03;94879.44;;;20.63;nan
4617;BME280;2321;42.704;23.384;2022-08-21T05:49:30;94867.28;;;20.76;nan
4617;BME280;2321;42.704;23.384;2022-08-21T05:51:57;94880.00;;;20.81;nan
4617;BME280;2321;42.704;23.384;2022-08-21T05:54:26;94859.69;;;20.88;nan
4617;BME280;2321;42.704;23.384;2022-08-21T05:56:53;94856.44;;;20.97;nan
4617;BME280;2321;42.704;23.384;2022-08-21T05:59:20;94866.72;;;21.10;nan
4617;BME280;2321;42.704;23.384;2022-08-21T06:01:48;94870.78;;;21.03;nan
4617;BME280;2321;42.704;23.384;2022-08-21T06:04:17;94877.56;;;21.05;nan
4617;BME280;2321;42.704;23.384;2022-08-21T06:06:44;94875.66;;;21.16;nan
4617;BME280;2321;42.704;23.384;2022-08-21T06:09:12;94873.50;;;21.08;nan
4617;BME280;2321;42.704;23.384;2022-08-21T06:11:41;94871.88;;;21.12;nan
4617;BME280;2321;42.704;23.384;2022-08-21T06:14:08;94876.47;;;21.22;nan
4617;BME280;2321;42.704;23.384;2022-08-21T06:16:35;94876.75;;;21.15;nan
4617;BME280;2321;42.704;23.384;2022-08-21T06:19:02;94867.28;;;21.07;nan
4617;BME280;2321;42.704;23.384;2022-08-21T06:21:29;94869.44;;;21.16;nan
4617;BME280;2321;42.704;23.384;2022-08-21T06:23:56;94875.38;;;21.07;nan
4617;BME280;2321;42.704;23.384;2022-08-21T06:26:23;94870.00;;;21.13;nan
4617;BME280;2321;42.704;23.384;2022-08-21T06:28:52;94873.22;;;21.20;nan
4617;BME280;2321;42.704;23.384;2022-08-21T06:31:21;94871.31;;;21.26;nan
4617;BME280;2321;42.704;23.384;2022-08-21T06:33:49;94867.28;;;21.18;nan
4617;BME280;2321;42.704;23.384;2022-08-21T06:36:16;94875.09;;;21.19;nan
4617;BME280;2321;42.704;23.384;2022-08-21T06:38:43;94875.66;;;21.11;nan
4617;BME280;2321;42.704;23.384;2022-08-21T06:41:10;94873.22;;;21.25;nan
4617;BME280;2321;42.704;23.384;2022-08-21T06:43:37;94864.53;;;21.23;nan
4617;BME280;2321;42.704;23.384;2022-08-21T06:46:06;94859.97;;;21.18;nan
4617;BME280;2321;42.704;23.384;2022-08-21T06:48:34;94874.00;;;21.36;nan
4617;BME280;2321;42.704;23.384;2022-08-21T06:51:01;94874.53;;;21.38;nan
4617;BME280;2321;42.704;23.384;2022-08-21T06:53:28;94876.69;;;21.47;nan
4617;BME280;2321;42.704;23.384;2022-08-21T06:55:55;94879.63;;;21.50;nan
4617;BME280;2321;42.704;23.384;2022-08-21T06:58:22;94875.56;;;21.53;nan
4617;BME280;2321;42.704;23.384;2022-08-21T07:00:50;94882.31;;;21.66;nan
4617;BME280;2321;42.704;23.384;2022-08-21T07:03:22;94889.84;;;21.74;nan
4617;BME280;2321;42.704;23.384;2022-08-21T07:05:49;94892.53;;;21.85;nan
4617;BME280;2321;42.704;23.384;2022-08-21T07:08:17;94894.91;;;22.02;nan
4617;BME280;2321;42.704;23.384;2022-08-21T07:10:44;94895.78;;;21.97;nan
4617;BME280;2321;42.704;23.384;2022-08-21T07:13:12;94887.84;;;22.12;nan
4617;BME280;2321;42.704;23.384;2022-08-21T07:15:40;94895.06;;;22.27;nan
4617;BME280;2321;42.704;23.384;2022-08-21T07:18:07;94888.53;;;22.33;nan
4617;BME280;2321;42.704;23.384;2022-08-21T07:20:36;94848.84;;;22.02;nan
4617;BME280;2321;42.704;23.384;2022-08-21T07:23:06;94886.94;;;22.27;nan
4617;BME280;2321;42.704;23.384;2022-08-21T07:25:34;94894.47;;;22.40;nan
4617;BME280;2321;42.704;23.384;2022-08-21T07:28:02;94878.19;;;22.40;nan
4617;BME280;2321;42.704;23.384;2022-08-21T07:30:29;94880.03;;;22.45;nan
4617;BME280;2321;42.704;23.384;2022-08-21T07:32:56;94878.44;;;22.44;nan
4617;BME280;2321;42.704;23.384;2022-08-21T07:35:24;94876.97;;;22.57;nan
4617;BME280;2321;42.704;23.384;2022-08-21T07:37:53;94877.53;;;22.54;nan
4617;BME280;2321;42.704;23.384;2022-08-21T07:40:20;94873.59;;;22.36;nan
4617;BME280;2321;42.704;23.384;2022-08-21T07:42:48;94866.81;;;22.38;nan
4617;BME280;2321;42.704;23.384;2022-08-21T07:45:18;94870.88;;;22.36;nan
4617;BME280;2321;42.704;23.384;2022-08-21T07:47:46;94863.53;;;22.41;nan
4617;BME280;2321;42.704;23.384;2022-08-21T07:50:13;94863.00;;;22.39;nan
4617;BME280;2321;42.704;23.384;2022-08-21T07:52:42;94859.13;;;22.51;nan
4617;BME280;2321;42.704;23.384;2022-08-21T07:55:13;94852.22;;;22.69;nan
4617;BME280;2321;42.704;23.384;2022-08-21T07:57:41;94855.06;;;22.89;nan
4617;BME280;2321;42.704;23.384;2022-08-21T08:00:10;94859.91;;;22.92;nan
4617;BME280;2321;42.704;23.384;2022-08-21T08:02:37;94870.41;;;23.04;nan
4617;BME280;2321;42.704;23.384;2022-08-21T08:05:07;94864.00;;;23.19;nan
4617;BME280;2321;42.704;23.384;2022-08-21T08:07:34;94868.31;;;23.25;nan
4617;BME280;2321;42.704;23.384;2022-08-21T08:10:02;94864.16;;;23.33;nan
4617;BME280;2321;42.704;23.384;2022-08-21T08:12:30;94866.50;;;23.40;nan
4617;BME280;2321;42.704;23.384;2022-08-21T08:14:58;94850.41;;;23.49;nan
4617;BME280;2321;42.704;23.384;2022-08-21T08:17:25;94863.38;;;23.57;nan
4617;BME280;2321;42.704;23.384;2022-08-21T08:19:52;94854.47;;;23.51;nan
4617;BME280;2321;42.704;23.384;2022-08-21T08:22:21;94863.09;;;23.59;nan
4617;BME280;2321;42.704;23.384;2022-08-21T08:24:50;94865.00;;;23.58;nan
4617;BME280;2321;42.704;23.384;2022-08-21T08:27:18;94854.47;;;23.51;nan
4617;BME280;2321;42.704;23.384;2022-08-21T08:29:47;94859.34;;;23.55;nan
4617;BME280;2321;42.704;23.384;2022-08-21T08:32:15;94867.00;;;23.47;nan
4617;BME280;2321;42.704;23.384;2022-08-21T08:34:42;94860.94;;;23.56;nan
4617;BME280;2321;42.704;23.384;2022-08-21T08:37:09;94858.19;;;23.61;nan
4617;BME280;2321;42.704;23.384;2022-08-21T08:39:37;94860.78;;;23.71;nan
4617;BME280;2321;42.704;23.384;2022-08-21T08:42:06;94862.78;;;23.85;nan
4617;BME280;2321;42.704;23.384;2022-08-21T08:44:35;94870.38;;;23.88;nan
4617;BME280;2321;42.704;23.384;2022-08-21T08:47:04;94871.94;;;23.94;nan
4617;BME280;2321;42.704;23.384;2022-08-21T08:49:37;94866.69;;;23.98;nan
4617;BME280;2321;42.704;23.384;2022-08-21T08:52:10;94855.06;;;23.92;nan
4617;BME280;2321;42.704;23.384;2022-08-21T08:54:43;94864.50;;;24.00;nan
4617;BME280;2321;42.704;23.384;2022-08-21T08:57:16;94864.19;;;24.02;nan
4617;BME280;2321;42.704;23.384;2022-08-21T08:59:46;94854.59;;;24.10;nan
4617;BME280;2321;42.704;23.384;2022-08-21T09:02:17;94855.34;;;24.15;nan
4617;BME280;2321;42.704;23.384;2022-08-21T09:04:46;94854.75;;;24.19;nan
4617;BME280;2321;42.704;23.384;2022-08-21T09:07:20;94844.59;;;24.24;nan
4617;BME280;2321;42.704;23.384;2022-08-21T09:10:10;94854.03;;;24.32;nan
4617;BME280;2321;42.704;23.384;2022-08-21T09:12:45;94837.06;;;24.41;nan
4617;BME280;2321;42.704;23.384;2022-08-21T09:15:22;94826.97;;;24.41;nan
4617;BME280;2321;42.704;23.384;2022-08-21T09:18:11;94833.00;;;24.57;nan
4617;BME280;2321;42.704;23.384;2022-08-21T09:20:49;94840.28;;;24.62;nan
4617;BME280;2321;42.704;23.384;2022-08-21T09:23:29;94832.47;;;24.55;nan
4617;BME280;2321;42.704;23.384;2022-08-21T09:26:05;94832.63;;;24.64;nan
4617;BME280;2321;42.704;23.384;2022-08-21T09:28:34;94827.88;;;24.70;nan
4617;BME280;2321;42.704;23.384;2022-08-21T09:31:05;94822.94;;;24.72;nan
4617;BME280;2321;42.704;23.384;2022-08-21T09:33:34;94824.34;;;24.69;nan
4617;BME280;2321;42.704;23.384;2022-08-21T09:36:01;94825.59;;;24.77;nan
4617;BME280;2321;42.704;23.384;2022-08-21T09:38:31;94816.28;;;24.98;nan
4617;BME280;2321;42.704;23.384;2022-08-21T09:41:02;94821.09;;;25.20;nan
4617;BME280;2321;42.704;23.384;2022-08-21T09:43:29;94812.63;;;25.36;nan
4617;BME280;2321;42.704;23.384;2022-08-21T09:46:06;94829.84;;;25.45;nan
4617;BME280;2321;42.704;23.384;2022-08-21T09:48:45;94830.16;;;25.58;nan
4617;BME280;2321;42.704;23.384;2022-08-21T09:51:15;94821.28;;;25.66;nan
4617;BME280;2321;42.704;23.384;2022-08-21T09:53:45;94818.75;;;25.70;nan
4617;BME280;2321;42.704;23.384;2022-08-21T09:56:20;94822.50;;;25.74;nan
4617;BME280;2321;42.704;23.384;2022-08-21T09:59:14;94817.28;;;25.78;nan
4617;BME280;2321;42.704;23.384;2022-08-21T10:01:43;94812.00;;;25.67;nan
4617;BME280;2321;42.704;23.384;2022-08-21T10:04:12;94813.81;;;25.72;nan
4617;BME280;2321;42.704;23.384;2022-08-21T10:06:40;94806.44;;;25.73;nan
4617;BME280;2321;42.704;23.384;2022-08-21T10:09:10;94809.16;;;25.59;nan
4617;BME280;2321;42.704;23.384;2022-08-21T10:11:38;94800.50;;;25.56;nan
4617;BME280;2321;42.704;23.384;2022-08-21T10:14:13;94797.69;;;25.48;nan
4617;BME280;2321;42.704;23.384;2022-08-21T10:17:01;94794.88;;;25.39;nan
4617;BME280;2321;42.704;23.384;2022-08-21T10:19:36;94797.47;;;25.44;nan
4617;BME280;2321;42.704;23.384;2022-08-21T10:22:15;94795.47;;;25.35;nan
4617;BME280;2321;42.704;23.384;2022-08-21T10:24:54;94794.25;;;25.42;nan
4617;BME280;2321;42.704;23.384;2022-08-21T10:27:33;94786.25;;;25.45;nan
4617;BME280;2321;42.704;23.384;2022-08-21T10:30:06;94782.44;;;25.46;nan
4617;BME280;2321;42.704;23.384;2022-08-21T10:32:49;94790.59;;;25.46;nan
4617;BME280;2321;42.704;23.384;2022-08-21T10:35:23;94791.50;;;25.56;nan
4617;BME280;2321;42.704;23.384;2022-08-21T10:38:24;94788.19;;;25.59;nan
4617;BME280;2321;42.704;23.384;2022-08-21T10:41:04;94781.03;;;25.63;nan
4617;BME280;2321;42.704;23.384;2022-08-21T10:43:42;94785.06;;;25.66;nan
4617;BME280;2321;42.704;23.384;2022-08-21T10:46:17;94784.25;;;25.51;nan
4617;BME280;2321;42.704;23.384;2022-08-21T10:48:50;94772.22;;;25.66;nan
4617;BME280;2321;42.704;23.384;2022-08-21T10:51:28;94767.97;;;25.74;nan
4617;BME280;2321;42.704;23.384;2022-08-21T10:54:02;94770.41;;;25.90;nan
4617;BME280;2321;42.704;23.384;2022-08-21T10:56:35;94768.75;;;26.03;nan
4617;BME280;2321;42.704;23.384;2022-08-21T10:59:15;94762.56;;;26.11;nan
4617;BME280;2321;42.704;23.384;2022-08-21T11:01:54;94763.25;;;26.17;nan
4617;BME280;2321;42.704;23.384;2022-08-21T11:04:26;94752.53;;;26.21;nan
4617;BME280;2321;42.704;23.384;2022-08-21T11:07:02;94753.75;;;26.38;nan
4617;BME280;2321;42.704;23.384;2022-08-21T11:09:30;94758.25;;;26.57;nan
4617;BME280;2321;42.704;23.384;2022-08-21T11:12:03;94743.72;;;26.70;nan
4617;BME280;2321;42.704;23.384;2022-08-21T11:14:47;94744.19;;;26.72;nan
4617;BME280;2321;42.704;23.384;2022-08-21T11:17:19;94734.63;;;26.84;nan
4617;BME280;2321;42.704;23.384;2022-08-21T11:19:52;94737.38;;;26.93;nan
4617;BME280;2321;42.704;23.384;2022-08-21T11:22:25;94724.91;;;27.01;nan
4617;BME280;2321;42.704;23.384;2022-08-21T11:24:57;94732.06;;;27.19;nan
4617;BME280;2321;42.704;23.384;2022-08-21T11:27:32;94732.59;;;27.39;nan
4617;BME280;2321;42.704;23.384;2022-08-21T11:30:00;94735.16;;;27.36;nan
4617;BME280;2321;42.704;23.384;2022-08-21T11:32:53;94738.09;;;27.48;nan
4617;BME280;2321;42.704;23.384;2022-08-21T11:35:32;94731.84;;;27.57;nan
4617;BME280;2321;42.704;23.384;2022-08-21T11:38:14;94734.25;;;27.67;nan
4617;BME280;2321;42.704;23.384;2022-08-21T11:40:54;94726.84;;;27.59;nan
4617;BME280;2321;42.704;23.384;2022-08-21T11:43:35;94734.88;;;27.55;nan
4617;BME280;2321;42.704;23.384;2022-08-21T11:46:12;94733.63;;;27.61;nan
4617;BME280;2321;42.704;23.384;2022-08-21T11:48:48;94738.13;;;27.66;nan
4617;BME280;2321;42.704;23.384;2022-08-21T11:51:21;94727.69;;;27.68;nan
4617;BME280;2321;42.704;23.384;2022-08-21T11:53:58;94723.97;;;27.73;nan
4617;BME280;2321;42.704;23.384;2022-08-21T11:56:33;94732.50;;;27.71;nan
4617;BME280;2321;42.704;23.384;2022-08-21T11:59:05;94723.03;;;27.69;nan
4617;BME280;2321;42.704;23.384;2022-08-21T12:01:40;94725.25;;;27.67;nan
4617;BME280;2321;42.704;23.384;2022-08-21T12:04:18;94717.84;;;27.58;nan
4617;BME280;2321;42.704;23.384;2022-08-21T12:06:49;94727.31;;;27.52;nan
4617;BME280;2321;42.704;23.384;2022-08-21T12:09:33;94718.63;;;27.41;nan
4617;BME280;2321;42.704;23.384;2022-08-21T12:12:04;94713.63;;;27.34;nan
4617;BME280;2321;42.704;23.384;2022-08-21T12:14:40;94702.34;;;27.27;nan
4617;BME280;2321;42.704;23.384;2022-08-21T12:17:16;94701.06;;;27.24;nan
4617;BME280;2321;42.704;23.384;2022-08-21T12:19:44;94696.72;;;27.23;nan
4617;BME280;2321;42.704;23.384;2022-08-21T12:22:13;94708.06;;;27.07;nan
4617;BME280;2321;42.704;23.384;2022-08-21T12:24:43;94709.16;;;27.06;nan
4617;BME280;2321;42.704;23.384;2022-08-21T12:27:26;94715.53;;;26.93;nan
4617;BME280;2321;42.704;23.384;2022-08-21T12:29:56;94711.19;;;26.83;nan
4617;BME280;2321;42.704;23.384;2022-08-21T12:32:27;94713.25;;;26.77;nan
4617;BME280;2321;42.704;23.384;2022-08-21T12:35:01;94714.78;;;26.69;nan
4617;BME280;2321;42.704;23.384;2022-08-21T12:37:36;94712.06;;;26.69;nan
4617;BME280;2321;42.704;23.384;2022-08-21T12:40:11;94718.16;;;26.66;nan
4617;BME280;2321;42.704;23.384;2022-08-21T12:42:42;94710.72;;;26.58;nan
4617;BME280;2321;42.704;23.384;2022-08-21T12:45:19;94705.56;;;26.56;nan
4617;BME280;2321;42.704;23.384;2022-08-21T12:47:50;94707.63;;;26.50;nan
4617;BME280;2321;42.704;23.384;2022-08-21T12:50:21;94700.56;;;26.49;nan
4617;BME280;2321;42.704;23.384;2022-08-21T12:52:57;94705.53;;;26.47;nan
4617;BME280;2321;42.704;23.384;2022-08-21T12:55:29;94697.84;;;26.49;nan
4617;BME280;2321;42.704;23.384;2022-08-21T12:57:57;94699.44;;;26.50;nan
4617;BME280;2321;42.704;23.384;2022-08-21T13:00:29;94705.53;;;26.47;nan
4617;BME280;2321;42.704;23.384;2022-08-21T13:02:56;94702.28;;;26.45;nan
4617;BME280;2321;42.704;23.384;2022-08-21T13:05:29;94696.22;;;26.48;nan
4617;BME280;2321;42.704;23.384;2022-08-21T13:07:57;94691.88;;;26.47;nan
4617;BME280;2321;42.704;23.384;2022-08-21T13:10:29;94702.91;;;26.42;nan
4617;BME280;2321;42.704;23.384;2022-08-21T13:12:58;94689.16;;;26.47;nan
4617;BME280;2321;42.704;23.384;2022-08-21T13:15:29;94691.59;;;26.49;nan
4617;BME280;2321;42.704;23.384;2022-08-21T13:17:57;94697.03;;;26.49;nan
4617;BME280;2321;42.704;23.384;2022-08-21T13:20:29;94698.06;;;26.39;nan
4617;BME280;2321;42.704;23.384;2022-08-21T13:22:57;94696.63;;;26.41;nan
4617;BME280;2321;42.704;23.384;2022-08-21T13:25:29;94688.16;;;26.43;nan
4617;BME280;2321;42.704;23.384;2022-08-21T13:28:00;94687.47;;;26.37;nan
4617;BME280;2321;42.704;23.384;2022-08-21T13:30:27;94683.63;;;26.38;nan
4617;BME280;2321;42.704;23.384;2022-08-21T13:32:58;94675.94;;;26.40;nan
4617;BME280;2321;42.704;23.384;2022-08-21T13:35:29;94670.16;;;26.42;nan
4617;BME280;2321;42.704;23.384;2022-08-21T13:37:57;94660.06;;;26.42;nan
4617;BME280;2321;42.704;23.384;2022-08-21T13:40:28;94659.13;;;26.47;nan
4617;BME280;2321;42.704;23.384;2022-08-21T13:42:57;94656.78;;;26.54;nan
4617;BME280;2321;42.704;23.384;2022-08-21T13:45:30;94660.34;;;26.64;nan
4617;BME280;2321;42.704;23.384;2022-08-21T13:48:00;94663.41;;;26.71;nan